Time;durP1;ratioP1;P1;durP2;ratioP2;P2;SDS_P1;SDS_P2;PMS_P1;PMS_P2;Temp;Humidity;BMP_temperature;BMP_pressure;BME280_temperature;BME280_humidity;BME280_pressure;Samples;Min_cycle;Max_cycle;Signal;HPM_P1;HPM_P2
2022/04/27 00:01:17;;;;;;;4.85;3.90;;;13.20;38.90;;;;;;4890248;29;20056;-82
2022/04/27 00:03:43;;;;;;;4.40;4.00;;;13.20;39.00;;;;;;4868431;29;20112;-81
2022/04/27 00:06:09;;;;;;;3.97;3.67;;;13.10;38.90;;;;;;4890432;29;20036;-81
2022/04/27 00:08:37;;;;;;;6.18;3.72;;;13.10;39.10;;;;;;4890085;29;20041;-81
2022/04/27 00:11:03;;;;;;;5.15;3.90;;;13.00;39.00;;;;;;4885515;29;20045;-82
2022/04/27 00:13:30;;;;;;;5.60;4.47;;;13.00;39.10;;;;;;4901541;29;20379;-81
2022/04/27 00:15:56;;;;;;;4.82;3.78;;;13.00;39.20;;;;;;4910184;29;20037;-80
2022/04/27 00:18:22;;;;;;;4.95;4.45;;;12.90;39.10;;;;;;4911155;29;20145;-79
2022/04/27 00:20:48;;;;;;;7.35;4.90;;;12.90;39.20;;;;;;4914997;29;20036;-80
2022/04/27 00:23:13;;;;;;;6.80;4.22;;;12.90;39.40;;;;;;4911172;29;20024;-81
2022/04/27 00:25:39;;;;;;;5.95;4.55;;;12.90;39.40;;;;;;4905692;29;20029;-80
2022/04/27 00:28:06;;;;;;;4.57;4.18;;;12.80;39.40;;;;;;4914356;29;20049;-81
2022/04/27 00:30:31;;;;;;;4.43;4.03;;;12.80;39.40;;;;;;4917971;23;20083;-82
2022/04/27 00:32:58;;;;;;;5.70;4.78;;;12.80;39.50;;;;;;4957030;28;20032;-82
2022/04/27 00:35:24;;;;;;;4.75;4.22;;;12.80;39.60;;;;;;4912341;29;20059;-82
2022/04/27 00:37:50;;;;;;;4.55;4.15;;;12.70;39.50;;;;;;4927801;29;20031;-82
2022/04/27 00:40:16;;;;;;;6.03;4.60;;;12.70;39.60;;;;;;4924622;29;20040;-81
2022/04/27 00:42:42;;;;;;;4.43;4.03;;;12.70;39.70;;;;;;4928220;29;20519;-83
2022/04/27 00:45:09;;;;;;;5.53;4.07;;;12.70;39.80;;;;;;4929635;29;20111;-82
2022/04/27 00:47:34;;;;;;;4.47;4.07;;;12.60;39.70;;;;;;4912532;29;20471;-83
2022/04/27 00:50:02;;;;;;;4.38;3.70;;;12.70;39.90;;;;;;4906083;29;20068;-82
2022/04/27 00:52:30;;;;;;;7.45;4.38;;;12.60;39.80;;;;;;4906848;29;20055;-82
2022/04/27 00:54:57;;;;;;;4.57;4.13;;;12.60;39.90;;;;;;4903371;29;20032;-79
2022/04/27 00:57:24;;;;;;;4.88;3.80;;;12.50;39.80;;;;;;4904032;29;20036;-79
2022/04/27 00:59:51;;;;;;;4.82;3.60;;;12.50;39.90;;;;;;4901786;29;20036;-79
2022/04/27 01:02:17;;;;;;;5.13;4.18;;;12.50;39.90;;;;;;4908164;29;20040;-80
2022/04/27 01:04:43;;;;;;;4.30;3.90;;;12.50;40.00;;;;;;4905128;29;20036;-80
2022/04/27 01:07:11;;;;;;;4.00;3.55;;;12.40;39.90;;;;;;4906803;29;20048;-81
2022/04/27 01:09:37;;;;;;;4.85;3.28;;;12.40;40.00;;;;;;4899600;29;20341;-82
2022/04/27 01:12:05;;;;;;;5.47;3.58;;;12.40;40.20;;;;;;4887792;29;20433;-81
2022/04/27 01:14:43;;;;;;;4.18;3.78;;;12.40;40.20;;;;;;4907578;29;20028;-81
2022/04/27 01:17:09;;;;;;;4.15;3.67;;;12.40;40.30;;;;;;4904299;29;20334;-82
2022/04/27 01:19:36;;;;;;;4.93;3.80;;;12.30;40.10;;;;;;4901138;29;20089;-82
2022/04/27 01:22:03;;;;;;;4.60;3.40;;;12.30;40.20;;;;;;4921355;29;20059;-83
2022/04/27 01:24:32;;;;;;;4.13;3.35;;;12.30;40.30;;;;;;4906884;29;20467;-82
2022/04/27 01:26:59;;;;;;;9.98;3.90;;;12.30;40.30;;;;;;4899616;29;20028;-81
2022/04/27 01:29:25;;;;;;;3.38;3.08;;;12.20;40.30;;;;;;4906741;29;20518;-83
2022/04/27 01:31:53;;;;;;;4.03;3.63;;;12.20;40.30;;;;;;4902409;29;20060;-82
2022/04/27 01:34:20;;;;;;;4.85;3.95;;;12.20;40.40;;;;;;4901830;29;20046;-82
2022/04/27 01:36:46;;;;;;;4.15;3.33;;;12.20;40.50;;;;;;4906886;29;20031;-82
2022/04/27 01:39:12;;;;;;;3.67;3.25;;;12.20;40.50;;;;;;4904286;29;20339;-82
2022/04/27 01:41:39;;;;;;;4.78;3.53;;;12.20;40.60;;;;;;4918846;29;20059;-82
2022/04/27 01:44:06;;;;;;;3.33;3.03;;;12.20;40.70;;;;;;4907006;29;20059;-82
2022/04/27 01:46:32;;;;;;;3.72;3.20;;;12.10;41.10;;;;;;4976177;23;20075;-89
2022/04/27 01:49:00;;;;;;;4.65;3.58;;;12.10;40.60;;;;;;4938119;29;20035;-95
2022/04/27 01:54:16;;;;;;;3.20;2.75;;;12.10;40.80;;;;;;4950846;28;20027;-96
2022/04/27 01:56:48;;;;;;;4.07;3.00;;;12.00;40.60;;;;;;4933471;29;20048;-96
2022/04/27 01:59:19;;;;;;;4.40;3.15;;;12.00;40.70;;;;;;4937377;29;20511;-96
2022/04/27 02:01:45;;;;;;;4.78;3.22;;;12.00;40.80;;;;;;4937858;28;20036;-95
2022/04/27 02:04:13;;;;;;;3.75;2.92;;;12.00;41.40;;;;;;4952252;29;20035;-95
2022/04/27 02:06:40;;;;;;;3.15;2.85;;;11.90;40.70;;;;;;4931344;29;20028;-95
2022/04/27 02:09:10;;;;;;;3.35;2.72;;;11.90;40.80;;;;;;4955048;29;20134;-96
2022/04/27 02:11:45;;;;;;;3.20;2.80;;;11.90;40.90;;;;;;4946992;29;20103;-94
2022/04/27 02:14:12;;;;;;;2.95;2.63;;;11.90;41.00;;;;;;4953113;29;20118;-95
2022/04/27 02:16:39;;;;;;;3.53;2.80;;;11.80;40.90;;;;;;4948722;29;20063;-94
2022/04/27 02:19:11;;;;;;;4.05;3.42;;;11.80;40.90;;;;;;4935776;29;20035;-94
2022/04/27 02:21:37;;;;;;;3.17;2.88;;;11.80;41.00;;;;;;4949708;28;20304;-94
2022/04/27 02:24:03;;;;;;;2.92;2.58;;;11.80;41.10;;;;;;4942598;29;20043;-94
2022/04/27 02:26:29;;;;;;;4.18;2.72;;;11.70;40.90;;;;;;4934528;29;20499;-93
2022/04/27 02:28:57;;;;;;;4.57;3.55;;;11.70;41.00;;;;;;4942230;28;20039;-95
2022/04/27 02:31:23;;;;;;;3.83;2.60;;;11.70;41.10;;;;;;4937584;28;20503;-94
2022/04/27 02:33:49;;;;;;;3.30;2.90;;;11.70;41.20;;;;;;4941652;29;20074;-95
2022/04/27 02:36:14;;;;;;;2.97;2.65;;;11.70;41.30;;;;;;4951321;29;20495;-90
2022/04/27 02:38:41;;;;;;;2.83;2.40;;;11.60;41.20;;;;;;4953042;28;20071;-93
2022/04/27 02:41:10;;;;;;;3.45;2.90;;;11.60;41.20;;;;;;4932398;29;20455;-93
2022/04/27 02:43:37;;;;;;;3.58;3.08;;;11.60;41.30;;;;;;4916019;29;20548;-93
2022/04/27 02:46:05;;;;;;;2.92;2.67;;;11.50;41.20;;;;;;4925494;29;20469;-91
2022/04/27 02:48:31;;;;;;;4.25;3.22;;;11.50;41.30;;;;;;4923810;29;20032;-94
2022/04/27 02:53:43;;;;;;;4.35;3.70;;;11.50;41.40;;;;;;4927006;29;20460;-93
2022/04/27 02:56:10;;;;;;;4.25;3.25;;;11.40;41.30;;;;;;4909151;29;20181;-93
2022/04/27 02:58:37;;;;;;;4.50;3.42;;;11.40;41.40;;;;;;4928165;29;20043;-92
2022/04/27 03:01:03;;;;;;;4.35;3.45;;;11.40;41.50;;;;;;4912591;29;20033;-90
2022/04/27 03:03:29;;;;;;;2.85;2.42;;;11.40;41.60;;;;;;4925857;29;20032;-90
2022/04/27 03:05:56;;;;;;;3.28;2.95;;;11.30;41.50;;;;;;4923773;29;20020;-93
2022/04/27 03:08:22;;;;;;;3.38;2.88;;;11.30;41.50;;;;;;4928268;29;20034;-87
2022/04/27 03:10:53;;;;;;;3.83;3.33;;;11.30;42.20;;;;;;4950021;28;20047;-93
2022/04/27 03:13:24;;;;;;;3.53;3.10;;;11.30;41.70;;;;;;4930235;29;20036;-91
2022/04/27 03:16:00;;;;;;;3.40;2.70;;;11.30;41.80;;;;;;4940994;29;20038;-94
2022/04/27 03:18:26;;;;;;;2.92;2.63;;;11.20;41.60;;;;;;4935577;29;20048;-91
2022/04/27 03:20:52;;;;;;;3.20;2.90;;;11.20;41.60;;;;;;4943941;29;20555;-90
2022/04/27 03:23:18;;;;;;;4.70;2.50;;;11.20;41.70;;;;;;4938294;29;20040;-92
2022/04/27 03:25:50;;;;;;;4.25;3.15;;;11.20;41.80;;;;;;4936836;29;20036;-94
2022/04/27 03:28:16;;;;;;;3.80;2.92;;;11.20;41.80;;;;;;4930407;29;20625;-94
2022/04/27 03:30:43;;;;;;;3.83;3.13;;;11.20;41.90;;;;;;4919841;29;20031;-94
2022/04/27 03:33:29;;;;;;;3.28;2.90;;;11.20;41.90;;;;;;4922240;29;20160;-94
2022/04/27 03:35:56;;;;;;;3.42;3.13;;;11.20;42.00;;;;;;4915989;29;20028;-93
2022/04/27 03:38:21;;;;;;;3.95;2.92;;;11.20;42.00;;;;;;4908393;29;20043;-90
2022/04/27 03:40:48;;;;;;;3.35;2.35;;;11.20;42.10;;;;;;4932966;29;20119;-91
2022/04/27 03:43:15;;;;;;;3.75;2.90;;;11.20;42.10;;;;;;4933443;29;20035;-91
2022/04/27 03:45:42;;;;;;;3.05;2.85;;;11.20;42.20;;;;;;4927592;29;20035;-89
2022/04/27 03:48:08;;;;;;;3.25;2.80;;;11.10;42.00;;;;;;4931484;28;20058;-90
2022/04/27 03:50:36;;;;;;;2.97;2.42;;;11.10;42.10;;;;;;4954824;29;20107;-91
2022/04/27 03:53:02;;;;;;;3.90;2.78;;;11.10;42.10;;;;;;4957546;28;20067;-90
2022/04/27 03:55:33;;;;;;;3.15;2.80;;;11.10;42.20;;;;;;4944873;28;20028;-92
2022/04/27 03:58:01;;;;;;;3.15;2.55;;;11.10;42.30;;;;;;4950943;28;20049;-92
2022/04/27 04:00:27;;;;;;;3.33;2.38;;;11.10;42.40;;;;;;4951866;28;20024;-94
2022/04/27 04:03:04;;;;;;;3.67;2.75;;;11.10;42.40;;;;;;4950019;28;20024;-91
2022/04/27 04:05:31;;;;;;;3.13;2.83;;;11.10;42.40;;;;;;4952077;28;20044;-91
2022/04/27 04:07:57;;;;;;;3.95;2.90;;;11.00;42.30;;;;;;4933666;28;20028;-91
2022/04/27 04:10:23;;;;;;;3.67;2.85;;;11.00;42.40;;;;;;4935194;29;20035;-91
2022/04/27 04:12:50;;;;;;;3.67;2.80;;;11.00;42.40;;;;;;4921585;29;20084;-91
2022/04/27 04:15:37;;;;;;;4.65;3.10;;;11.00;42.40;;;;;;4936554;29;20465;-94
2022/04/27 04:18:35;;;;;;;3.83;3.10;;;11.00;42.40;;;;;;4930152;29;20123;-96
2022/04/27 04:21:15;;;;;;;3.40;2.92;;;11.00;43.00;;;;;;4912191;29;20122;-96
2022/04/27 04:24:03;;;;;;;5.93;2.92;;;11.00;42.50;;;;;;4932681;29;20028;-93
2022/04/27 04:29:18;;;;;;;4.47;2.85;;;11.00;42.60;;;;;;4930491;29;20051;-93
2022/04/27 04:31:44;;;;;;;3.38;2.78;;;10.90;42.40;;;;;;4932981;29;20404;-93
2022/04/27 04:34:30;;;;;;;3.90;2.95;;;10.90;42.50;;;;;;4920066;29;20105;-96
2022/04/27 04:36:57;;;;;;;3.35;2.88;;;10.90;42.60;;;;;;4928109;29;20046;-94
2022/04/27 04:39:23;;;;;;;3.13;2.78;;;10.90;42.60;;;;;;4929374;29;20030;-93
2022/04/27 04:41:50;;;;;;;3.95;3.00;;;10.90;42.70;;;;;;4906986;29;20044;-92
2022/04/27 04:44:15;;;;;;;4.35;2.67;;;10.90;42.80;;;;;;4928911;29;20024;-90
2022/04/27 04:47:03;;;;;;;3.63;2.70;;;10.90;42.90;;;;;;4920360;29;20208;-90
2022/04/27 04:49:48;;;;;;;2.97;2.70;;;10.90;42.90;;;;;;4926085;29;20063;-92
2022/04/27 04:52:33;;;;;;;4.13;3.15;;;10.80;42.80;;;;;;4920753;29;20443;-93
2022/04/27 04:55:32;;;;;;;3.38;2.97;;;10.90;42.90;;;;;;4920389;29;20046;-93
2022/04/27 04:58:16;;;;;;;3.78;3.05;;;10.90;43.00;;;;;;4929236;29;20319;-93
2022/04/27 05:01:12;;;;;;;2.90;2.60;;;10.80;42.80;;;;;;4917395;29;20043;-89
2022/04/27 05:03:53;;;;;;;2.53;2.33;;;10.80;42.90;;;;;;4913638;29;20091;-92
2022/04/27 05:06:46;;;;;;;3.45;2.72;;;10.80;42.90;;;;;;4929715;29;20043;-92
2022/04/27 05:09:36;;;;;;;3.45;2.90;;;10.80;43.00;;;;;;4924897;29;20032;-89
2022/04/27 05:12:37;;;;;;;2.92;2.25;;;10.80;43.00;;;;;;4913967;29;20411;-88
2022/04/27 05:15:21;;;;;;;3.40;2.47;;;10.80;43.10;;;;;;4928787;29;20126;-83
2022/04/27 05:17:59;;;;;;;3.42;2.63;;;10.80;43.10;;;;;;4931724;29;20059;-86
2022/04/27 05:20:34;;;;;;;3.33;2.92;;;10.80;43.20;;;;;;4924046;29;20087;-87
2022/04/27 05:23:12;;;;;;;2.58;2.38;;;10.80;43.30;;;;;;4904078;29;20149;-81
2022/04/27 05:25:57;;;;;;;3.80;2.88;;;10.80;43.30;;;;;;4930223;29;20039;-82
2022/04/27 05:32:00;;;;;;;2.80;2.38;;;10.80;43.40;;;;;;4882665;29;20056;-79
2022/04/27 05:34:55;;;;;;;5.65;2.88;;;10.80;43.30;;;;;;4916108;29;20039;-79
2022/04/27 05:37:41;;;;;;;3.05;2.72;;;10.90;43.50;;;;;;4930869;29;20063;-82
2022/04/27 05:40:26;;;;;;;4.28;2.30;;;10.90;43.50;;;;;;4934397;29;20082;-83
2022/04/27 05:43:05;;;;;;;3.72;2.95;;;10.90;43.50;;;;;;4923393;29;20036;-88
2022/04/27 05:45:48;;;;;;;4.20;2.97;;;10.90;43.50;;;;;;4930336;29;20039;-82
2022/04/27 05:48:34;;;;;;;5.18;2.45;;;10.90;43.40;;;;;;4892491;29;20048;-83
2022/04/27 05:51:23;;;;;;;3.10;2.80;;;11.00;43.60;;;;;;4925981;29;20083;-79
2022/04/27 05:54:02;;;;;;;5.72;3.08;;;11.00;43.50;;;;;;4929984;29;20123;-80
2022/04/27 05:56:47;;;;;;;5.38;3.38;;;11.10;43.70;;;;;;4925722;29;20412;-79
2022/04/27 05:59:31;;;;;;;4.57;3.55;;;11.10;43.60;;;;;;4927991;29;20314;-82
2022/04/27 06:02:32;;;;;;;7.00;3.38;;;11.10;43.70;;;;;;4927979;29;20456;-79
2022/04/27 06:04:58;;;;;;;4.13;3.75;;;11.20;44.00;;;;;;4922327;29;20476;-82
2022/04/27 06:07:25;;;;;;;5.65;3.30;;;11.20;44.00;;;;;;4900749;29;20381;-77
2022/04/27 06:09:53;;;;;;;4.20;3.15;;;11.20;44.00;;;;;;4914929;29;20050;-81
2022/04/27 06:12:34;;;;;;;6.00;3.35;;;11.20;43.90;;;;;;4921255;29;20404;-81
2022/04/27 06:15:19;;;;;;;4.53;2.95;;;11.20;43.90;;;;;;4927415;29;20039;-87
2022/04/27 06:17:45;;;;;;;4.20;3.35;;;11.20;43.80;;;;;;4922293;29;20095;-83
2022/04/27 06:20:13;;;;;;;4.57;3.75;;;11.20;43.90;;;;;;4926673;29;20043;-86
2022/04/27 06:22:39;;;;;;;7.95;3.95;;;11.30;44.10;;;;;;4930805;29;20459;-86
2022/04/27 06:25:06;;;;;;;5.95;3.30;;;11.30;44.20;;;;;;4910485;29;20042;-84
2022/04/27 06:27:52;;;;;;;9.50;4.03;;;11.30;44.10;;;;;;4929185;29;20408;-84
2022/04/27 06:30:19;;;;;;;5.30;4.10;;;11.30;44.00;;;;;;4919235;29;20463;-85
2022/04/27 06:32:47;;;;;;;8.65;3.97;;;11.40;44.20;;;;;;4925538;29;20131;-80
2022/04/27 06:35:14;;;;;;;4.88;3.90;;;11.40;44.20;;;;;;4928186;29;20634;-82
2022/04/27 06:37:41;;;;;;;7.68;3.92;;;11.40;44.20;;;;;;4926501;29;20083;-78
2022/04/27 06:40:08;;;;;;;4.43;3.80;;;11.40;44.20;;;;;;4938526;29;20032;-81
2022/04/27 06:42:36;;;;;;;6.93;3.95;;;11.50;44.30;;;;;;4951078;28;20044;-83
2022/04/27 06:45:20;;;;;;;4.63;3.53;;;11.50;44.20;;;;;;4950546;29;20044;-83
2022/04/27 06:48:06;;;;;;;4.78;3.78;;;11.60;44.30;;;;;;4947789;29;20043;-83
2022/04/27 06:50:50;;;;;;;8.48;4.30;;;11.60;44.10;;;;;;4927936;29;20091;-82
2022/04/27 06:53:35;;;;;;;5.15;3.35;;;11.80;44.40;;;;;;4921144;29;20135;-84
2022/04/27 06:56:19;;;;;;;7.05;4.10;;;11.90;44.50;;;;;;4914972;29;20028;-84
2022/04/27 06:59:00;;;;;;;6.28;3.85;;;11.90;44.30;;;;;;4925869;29;20038;-80
2022/04/27 07:01:32;;;;;;;4.35;3.70;;;12.00;44.30;;;;;;4911678;29;20054;-81
2022/04/27 07:04:06;;;;;;;4.55;3.92;;;12.10;44.40;;;;;;4917373;29;20024;-84
2022/04/27 07:06:32;;;;;;;4.53;3.55;;;12.20;44.60;;;;;;4921589;29;20044;-82
2022/04/27 07:08:59;;;;;;;4.63;3.55;;;12.30;44.70;;;;;;4929357;29;20040;-85
2022/04/27 07:11:25;;;;;;;6.28;4.35;;;12.30;44.50;;;;;;4917219;29;20040;-83
2022/04/27 07:13:54;;;;;;;6.18;4.40;;;12.40;44.50;;;;;;4909172;29;20091;-79
2022/04/27 07:16:20;;;;;;;5.75;3.88;;;12.50;44.50;;;;;;4918734;29;20036;-80
2022/04/27 07:18:46;;;;;;;3.75;3.28;;;12.70;44.70;;;;;;4926056;29;20099;-79
2022/04/27 07:21:12;;;;;;;5.20;3.47;;;12.80;44.70;;;;;;4928544;29;20043;-81
2022/04/27 07:23:38;;;;;;;4.07;3.67;;;12.90;44.80;;;;;;4920624;29;20546;-82
2022/04/27 07:26:08;;;;;;;3.55;3.10;;;13.10;44.70;;;;;;4926554;29;20040;-79
2022/04/27 07:28:38;;;;;;;3.53;3.15;;;13.20;44.50;;;;;;4927725;29;20032;-80
2022/04/27 07:31:05;;;;;;;5.90;3.60;;;13.30;44.40;;;;;;4920892;29;20071;-80
2022/04/27 07:33:31;;;;;;;6.50;3.75;;;13.40;44.30;;;;;;4920620;29;20034;-79
2022/04/27 07:35:57;;;;;;;4.68;3.10;;;13.50;44.40;;;;;;4926323;29;20496;-80
2022/04/27 07:38:23;;;;;;;4.75;3.30;;;13.50;44.30;;;;;;4927925;29;20031;-80
2022/04/27 07:40:49;;;;;;;3.92;3.25;;;13.50;44.20;;;;;;4905826;29;20036;-80
2022/04/27 07:43:17;;;;;;;5.40;3.20;;;13.60;44.30;;;;;;4925331;29;20099;-81
2022/04/27 07:45:44;;;;;;;5.95;3.08;;;13.60;44.20;;;;;;4924296;29;20036;-82
2022/04/27 07:48:13;;;;;;;6.45;3.67;;;13.60;44.10;;;;;;4920661;29;20300;-80
2022/04/27 07:50:40;;;;;;;5.43;3.30;;;13.70;44.20;;;;;;4919737;29;20051;-80
2022/04/27 07:53:06;;;;;;;6.22;2.92;;;13.70;44.10;;;;;;4930233;29;20040;-80
2022/04/27 07:55:32;;;;;;;4.60;2.60;;;13.80;44.20;;;;;;4929196;29;20038;-83
2022/04/27 07:57:58;;;;;;;6.32;3.15;;;13.80;44.10;;;;;;4916472;29;20039;-85
2022/04/27 08:00:24;;;;;;;2.75;2.40;;;13.90;44.10;;;;;;4927799;29;20118;-80
2022/04/27 08:02:49;;;;;;;3.03;2.10;;;14.00;44.20;;;;;;4928093;29;20452;-84
2022/04/27 08:05:15;;;;;;;5.57;2.40;;;14.10;44.20;;;;;;4928009;29;20098;-83
2022/04/27 08:07:44;;;;;;;3.65;2.22;;;14.20;44.20;;;;;;4927976;29;20034;-86
2022/04/27 08:10:12;;;;;;;3.35;2.20;;;14.30;44.10;;;;;;4901949;29;20040;-86
2022/04/27 08:12:40;;;;;;;4.50;2.15;;;14.40;43.90;;;;;;4912390;29;20043;-85
2022/04/27 08:15:07;;;;;;;5.70;2.03;;;14.40;43.70;;;;;;4931382;29;20024;-89
2022/04/27 08:17:34;;;;;;;7.88;2.55;;;14.50;43.60;;;;;;4931539;29;20028;-87
2022/04/27 08:22:45;;;;;;;6.90;2.85;;;14.70;43.50;;;;;;4943134;29;20034;-86
2022/04/27 08:25:11;;;;;;;4.00;1.83;;;14.80;43.40;;;;;;4931383;29;20032;-86
2022/04/27 08:27:37;;;;;;;4.13;2.00;;;14.90;43.30;;;;;;4931243;29;20138;-87
2022/04/27 08:30:05;;;;;;;4.28;1.60;;;14.90;43.10;;;;;;4926999;29;20043;-87
2022/04/27 08:32:32;;;;;;;3.05;1.67;;;15.00;43.10;;;;;;4928347;29;20115;-86
2022/04/27 08:34:57;;;;;;;5.65;2.05;;;15.10;43.00;;;;;;4913222;29;20452;-87
2022/04/27 08:37:23;;;;;;;3.42;2.13;;;15.10;42.80;;;;;;4922149;29;20040;-83
2022/04/27 08:39:49;;;;;;;3.08;1.70;;;15.20;42.90;;;;;;4912511;29;20125;-77
2022/04/27 08:42:15;;;;;;;3.08;1.80;;;15.30;42.90;;;;;;4929261;29;20138;-79
2022/04/27 08:44:41;;;;;;;5.20;2.92;;;15.30;42.80;;;;;;4921633;29;20042;-79
2022/04/27 08:47:09;;;;;;;3.67;1.80;;;15.40;42.80;;;;;;4926447;29;20071;-78
2022/04/27 08:49:34;;;;;;;6.38;1.80;;;15.50;42.80;;;;;;4924572;29;20055;-83
2022/04/27 08:52:04;;;;;;;6.60;1.45;;;15.60;42.60;;;;;;4929740;29;20137;-81
2022/04/27 08:54:33;;;;;;;4.60;1.75;;;15.70;42.40;;;;;;4928387;29;20544;-81
2022/04/27 08:56:59;;;;;;;1.52;1.08;;;15.90;42.40;;;;;;4922614;29;20042;-80
2022/04/27 08:59:25;;;;;;;4.13;1.80;;;16.00;42.20;;;;;;4929985;29;20031;-83
2022/04/27 09:01:51;;;;;;;7.45;1.63;;;16.10;42.00;;;;;;4921203;29;20036;-80
2022/04/27 09:04:19;;;;;;;4.70;0.90;;;16.10;41.70;;;;;;4928753;29;20038;-83
2022/04/27 09:06:47;;;;;;;3.50;1.20;;;16.10;41.40;;;;;;4912071;29;20095;-83
2022/04/27 09:09:34;;;;;;;2.22;1.27;;;16.20;41.30;;;;;;4925944;29;20132;-84
2022/04/27 09:12:02;;;;;;;3.33;1.30;;;16.10;40.50;;;;;;4930198;29;20055;-87
2022/04/27 09:14:39;;;;;;;1.58;1.23;;;16.20;40.80;;;;;;4922292;29;20391;-80
2022/04/27 09:23:37;;;;;;;3.20;1.10;;;16.40;40.30;;;;;;4927500;29;20115;-82
2022/04/27 09:26:27;;;;;;;3.70;0.93;;;16.50;40.30;;;;;;4921838;29;20028;-82
2022/04/27 09:28:58;;;;;;;3.35;1.45;;;16.60;40.30;;;;;;4915120;29;20032;-83
2022/04/27 09:31:29;;;;;;;5.15;1.95;;;16.70;40.50;;;;;;4926656;29;20527;-82
2022/04/27 09:34:27;;;;;;;2.67;1.00;;;16.90;40.50;;;;;;4928440;29;20031;-82
2022/04/27 09:36:54;;;;;;;2.03;0.98;;;17.00;40.40;;;;;;4926805;29;20040;-83
2022/04/27 09:39:26;;;;;;;3.78;1.15;;;17.20;40.40;;;;;;4921962;29;20040;-78
2022/04/27 09:41:52;;;;;;;3.30;1.17;;;17.30;40.20;;;;;;4929454;29;20110;-83
2022/04/27 09:44:29;;;;;;;1.80;1.02;;;17.40;40.20;;;;;;4906631;29;20080;-83
2022/04/27 09:46:55;;;;;;;2.38;1.00;;;17.40;39.80;;;;;;4917901;29;20078;-83
2022/04/27 09:49:21;;;;;;;1.63;1.17;;;17.50;40.10;;;;;;4919964;29;20300;-80
2022/04/27 09:51:53;;;;;;;2.00;1.55;;;17.40;39.90;;;;;;4921851;29;20496;-79
2022/04/27 09:54:30;;;;;;;3.38;1.50;;;17.30;39.70;;;;;;4928814;29;20035;-80
2022/04/27 09:57:02;;;;;;;3.42;1.48;;;17.20;40.10;;;;;;4907641;29;20032;-83
2022/04/27 09:59:30;;;;;;;2.88;1.63;;;17.20;39.60;;;;;;4917437;29;20036;-82
2022/04/27 10:01:58;;;;;;;3.38;1.30;;;17.20;39.50;;;;;;4901250;29;20035;-82
2022/04/27 10:04:29;;;;;;;2.47;1.15;;;17.20;39.40;;;;;;4928338;29;20082;-83
2022/04/27 10:07:00;;;;;;;1.52;1.40;;;17.30;39.40;;;;;;4925852;29;20075;-83
2022/04/27 10:09:28;;;;;;;4.28;1.90;;;17.40;39.50;;;;;;4929166;29;20108;-85
2022/04/27 10:11:55;;;;;;;2.95;1.20;;;17.50;39.40;;;;;;4928549;29;20232;-80
2022/04/27 10:14:22;;;;;;;2.78;1.15;;;17.50;39.10;;;;;;4929423;29;20126;-84
2022/04/27 10:16:49;;;;;;;1.55;1.23;;;17.60;39.20;;;;;;4928406;29;20470;-84
2022/04/27 10:19:16;;;;;;;2.10;1.20;;;17.60;39.00;;;;;;4925560;29;20555;-85
2022/04/27 10:21:56;;;;;;;2.67;1.17;;;17.70;39.00;;;;;;4942382;29;20054;-84
2022/04/27 10:24:34;;;;;;;2.08;1.20;;;17.90;39.00;;;;;;4940959;29;20039;-83
2022/04/27 10:27:13;;;;;;;2.25;1.15;;;18.10;39.00;;;;;;4939924;28;20020;-83
2022/04/27 10:29:39;;;;;;;1.08;0.98;;;18.30;39.10;;;;;;4948597;28;20036;-83
2022/04/27 10:32:05;;;;;;;1.80;1.58;;;18.40;39.10;;;;;;4941160;29;20043;-78
2022/04/27 10:34:33;;;;;;;1.20;1.08;;;18.50;38.90;;;;;;4943461;29;20146;-79
2022/04/27 10:37:01;;;;;;;2.38;0.90;;;18.60;38.80;;;;;;4931350;29;20039;-80
2022/04/27 10:39:31;;;;;;;3.58;1.20;;;18.80;38.90;;;;;;4937418;29;20047;-83
2022/04/27 10:42:03;;;;;;;1.45;0.85;;;18.90;38.50;;;;;;4921702;29;20112;-85
2022/04/27 10:44:48;;;;;;;2.30;1.08;;;18.90;37.90;;;;;;4923543;29;20044;-86
2022/04/27 10:47:15;;;;;;;1.70;0.98;;;18.90;37.30;;;;;;4932973;29;20044;-82
2022/04/27 10:49:41;;;;;;;4.40;1.50;;;18.70;37.10;;;;;;4927346;29;20426;-78
2022/04/27 10:52:12;;;;;;;4.63;1.08;;;18.60;36.80;;;;;;4927039;29;20047;-80
2022/04/27 10:54:39;;;;;;;2.55;1.10;;;18.40;36.40;;;;;;4935771;29;20127;-82
2022/04/27 10:57:17;;;;;;;2.03;1.17;;;18.20;36.10;;;;;;4942945;29;20061;-82
2022/04/27 10:59:47;;;;;;;4.18;1.10;;;18.10;35.70;;;;;;4946455;29;20091;-79
2022/04/27 11:02:41;;;;;;;3.22;1.00;;;18.00;35.80;;;;;;4948659;29;20019;-80
2022/04/27 11:05:10;;;;;;;1.90;1.30;;;17.90;35.30;;;;;;4934125;29;20088;-79
2022/04/27 11:08:00;;;;;;;2.92;1.20;;;17.90;35.60;;;;;;4936056;29;20028;-85
2022/04/27 11:10:27;;;;;;;2.15;1.10;;;17.90;35.30;;;;;;4952700;28;20020;-86
2022/04/27 11:12:54;;;;;;;5.20;1.40;;;17.90;35.30;;;;;;4950284;28;20032;-81
2022/04/27 11:15:25;;;;;;;7.55;1.30;;;17.90;35.10;;;;;;4930402;29;20125;-82
2022/04/27 11:18:01;;;;;;;3.05;1.35;;;17.90;34.90;;;;;;4924081;29;20483;-83
2022/04/27 11:20:36;;;;;;;3.50;1.45;;;17.80;34.60;;;;;;4928042;29;20039;-86
2022/04/27 11:23:07;;;;;;;1.52;0.93;;;17.80;34.60;;;;;;4927596;29;20032;-85
2022/04/27 11:25:36;;;;;;;2.20;1.27;;;17.70;34.30;;;;;;4917489;29;20036;-84
2022/04/27 11:28:05;;;;;;;1.70;1.58;;;17.70;34.30;;;;;;4931827;29;20094;-85
2022/04/27 11:30:32;;;;;;;6.50;2.05;;;17.60;34.10;;;;;;4932264;29;20040;-85
2022/04/27 11:33:03;;;;;;;3.58;1.50;;;17.50;33.90;;;;;;4926343;29;20066;-86
2022/04/27 11:35:50;;;;;;;4.93;1.25;;;17.50;33.90;;;;;;4931821;29;20115;-86
2022/04/27 11:38:18;;;;;;;4.18;1.20;;;17.50;33.80;;;;;;4930615;29;20057;-85
2022/04/27 11:40:51;;;;;;;2.92;1.35;;;17.40;33.80;;;;;;4932894;29;20123;-85
2022/04/27 11:43:32;;;;;;;4.50;1.48;;;17.40;34.40;;;;;;4932352;29;20131;-87
2022/04/27 11:45:59;;;;;;;2.95;1.67;;;17.40;33.70;;;;;;4932385;29;20066;-88
2022/04/27 11:48:29;;;;;;;3.47;1.50;;;17.40;33.90;;;;;;4934176;29;20039;-88
2022/04/27 11:50:58;;;;;;;3.38;1.88;;;17.30;33.60;;;;;;4917102;29;20042;-86
2022/04/27 11:53:24;;;;;;;1.48;1.20;;;17.30;33.50;;;;;;4917936;29;20035;-83
2022/04/27 11:55:51;;;;;;;6.00;1.60;;;17.30;33.50;;;;;;4916941;29;20067;-89
2022/04/27 11:58:22;;;;;;;5.93;1.77;;;17.30;33.50;;;;;;4934063;29;20033;-89
2022/04/27 12:00:49;;;;;;;4.97;1.50;;;17.30;33.50;;;;;;4950830;29;20090;-90
2022/04/27 12:03:15;;;;;;;2.45;1.17;;;17.30;33.50;;;;;;4949359;29;20054;-84
2022/04/27 12:05:48;;;;;;;2.90;1.10;;;17.30;33.50;;;;;;4935355;29;20470;-79
2022/04/27 12:08:17;;;;;;;;;;;17.30;33.50;;;;;;4936667;29;20041;-88
2022/04/27 12:10:45;;;;;;;3.25;1.10;;;17.20;33.40;;;;;;4933456;29;19926;-86
2022/04/27 12:13:13;;;;;;;3.75;1.67;;;17.30;33.70;;;;;;4935444;29;20024;-87
2022/04/27 12:15:48;;;;;;;2.67;1.73;;;17.30;33.70;;;;;;4925516;29;20062;-86
2022/04/27 12:18:16;;;;;;;3.65;1.77;;;17.30;33.70;;;;;;4924447;29;20035;-89
2022/04/27 12:20:44;;;;;;;4.20;1.92;;;17.30;33.70;;;;;;4933731;29;20094;-89
2022/04/27 12:23:14;;;;;;;7.35;1.75;;;17.20;33.40;;;;;;4910146;29;20046;-81
2022/04/27 12:25:53;;;;;;;5.22;2.40;;;17.30;33.50;;;;;;4934955;29;20059;-84
2022/04/27 12:28:27;;;;;;;7.40;2.30;;;17.30;33.40;;;;;;4928716;29;20036;-87
2022/04/27 12:31:03;;;;;;;4.82;1.92;;;17.30;33.40;;;;;;4925920;29;20457;-86
2022/04/27 12:33:35;;;;;;;5.55;2.35;;;17.30;33.40;;;;;;4928229;29;20475;-86
2022/04/27 12:39:02;;;;;;;3.25;1.60;;;17.30;34.00;;;;;;4931752;29;20109;-87
2022/04/27 12:41:32;;;;;;;3.50;1.50;;;17.30;33.30;;;;;;4926208;29;20139;-89
2022/04/27 12:44:10;;;;;;;5.57;1.88;;;17.40;33.50;;;;;;4925979;29;20047;-87
2022/04/27 12:46:38;;;;;;;3.58;2.10;;;17.50;33.50;;;;;;4924962;29;20465;-87
2022/04/27 12:49:08;;;;;;;3.45;1.95;;;17.60;33.60;;;;;;4920213;29;20024;-88
2022/04/27 12:51:35;;;;;;;3.85;2.80;;;17.60;33.50;;;;;;4913094;29;20072;-86
2022/04/27 12:54:05;;;;;;;7.75;3.45;;;17.70;33.60;;;;;;4918016;29;20028;-86
2022/04/27 12:56:35;;;;;;;4.15;1.90;;;17.70;33.50;;;;;;4924489;29;20633;-87
2022/04/27 12:59:11;;;;;;;4.43;1.77;;;17.70;33.50;;;;;;4931253;29;20082;-85
2022/04/27 13:01:38;;;;;;;3.83;2.15;;;17.70;33.40;;;;;;4932851;29;20126;-87
2022/04/27 13:04:05;;;;;;;7.70;2.97;;;17.70;33.40;;;;;;4930499;29;20654;-87
2022/04/27 13:06:30;;;;;;;3.75;2.25;;;17.60;33.30;;;;;;4930549;29;20104;-88
2022/04/27 13:11:57;;;;;;;4.40;2.50;;;17.60;33.40;;;;;;4930412;29;20138;-81
2022/04/27 13:14:27;;;;;;;4.22;2.13;;;17.50;33.20;;;;;;4925146;29;20143;-86
2022/04/27 13:16:54;;;;;;;3.40;2.05;;;17.60;33.50;;;;;;4927493;29;20515;-84
2022/04/27 13:19:20;;;;;;;4.97;2.35;;;17.50;33.30;;;;;;4928163;29;20170;-83
2022/04/27 13:21:47;;;;;;;4.20;2.00;;;17.50;33.20;;;;;;4920664;29;20035;-85
2022/04/27 13:24:14;;;;;;;5.30;2.20;;;17.50;33.20;;;;;;4908690;29;20139;-84
2022/04/27 13:26:40;;;;;;;3.30;2.10;;;17.50;33.30;;;;;;4937882;29;20035;-82
2022/04/27 13:29:07;;;;;;;4.85;2.22;;;17.40;33.20;;;;;;4921033;29;20107;-85
2022/04/27 13:31:33;;;;;;;3.97;2.17;;;17.40;33.40;;;;;;4927997;29;20663;-87
2022/04/27 13:33:59;;;;;;;6.05;2.55;;;17.30;33.30;;;;;;4927885;29;20093;-85